Time;durP1;ratioP1;P1;durP2;ratioP2;P2;SDS_P1;SDS_P2;PMS_P1;PMS_P2;Temp;Humidity;BMP_temperature;BMP_pressure;BME280_temperature;BME280_humidity;BME280_pressure;Samples;Min_cycle;Max_cycle;Signal;HPM_P1;HPM_P2
2022/11/25 15:03:18;;;;;;;13.55;3.60;;;11.10;80.20;;;;;;5111245;27;20169;-49
2022/11/25 15:05:43;;;;;;;17.33;2.88;;;11.10;80.40;;;;;;5110508;28;20457;-50
2022/11/25 15:08:16;;;;;;;11.75;4.22;;;11.10;79.90;;;;;;5111059;28;20047;-51
2022/11/25 15:10:59;;;;;;;18.65;5.32;;;11.20;80.00;;;;;;5110987;28;20099;-48
2022/11/25 15:13:42;;;;;;;13.15;4.50;;;11.20;79.80;;;;;;5110814;28;20414;-48
2022/11/25 15:16:21;;;;;;;13.93;2.70;;;11.30;79.70;;;;;;5110442;28;20035;-53
2022/11/25 15:18:50;;;;;;;9.10;3.38;;;11.20;79.70;;;;;;5111720;28;20053;-51
2022/11/25 15:21:20;;;;;;;15.23;5.53;;;11.20;79.80;;;;;;5119993;28;20028;-52
2022/11/25 15:23:46;;;;;;;16.77;4.10;;;11.10;79.80;;;;;;5110293;28;20028;-50
2022/11/25 15:26:21;;;;;;;11.63;3.03;;;11.10;80.00;;;;;;5111978;28;20027;-51
2022/11/25 15:28:56;;;;;;;9.30;3.25;;;11.00;80.30;;;;;;5112170;28;20044;-48
2022/11/25 15:31:29;;;;;;;16.98;3.92;;;10.90;80.60;;;;;;5110786;28;20030;-49
2022/11/25 15:33:59;;;;;;;8.98;3.22;;;10.90;80.50;;;;;;5111753;28;20035;-50
2022/11/25 15:36:25;;;;;;;10.77;4.20;;;10.80;80.60;;;;;;5110706;28;20020;-48
2022/11/25 15:38:51;;;;;;;16.00;4.18;;;10.90;80.60;;;;;;5110093;28;20028;-51
2022/11/25 15:41:34;;;;;;;17.10;4.13;;;10.80;80.70;;;;;;5108784;28;20024;-49
2022/11/25 15:44:03;;;;;;;14.45;3.95;;;10.70;81.00;;;;;;5110250;28;20016;-49
2022/11/25 15:46:31;;;;;;;14.48;3.88;;;10.70;81.30;;;;;;5110222;28;20054;-54
2022/11/25 15:49:05;;;;;;;11.90;3.63;;;10.70;81.70;;;;;;5110486;28;20452;-54
2022/11/25 15:51:34;;;;;;;11.50;3.75;;;10.70;81.40;;;;;;5109980;28;20024;-52
2022/11/25 15:54:16;;;;;;;14.75;3.67;;;10.70;81.30;;;;;;5110223;28;20121;-50
2022/11/25 15:56:48;;;;;;;14.77;5.45;;;10.70;81.40;;;;;;5110330;28;20032;-48
2022/11/25 15:59:45;;;;;;;10.70;3.80;;;10.70;81.50;;;;;;5111222;28;20078;-51
2022/11/25 16:02:29;;;;;;;13.07;3.55;;;10.70;81.50;;;;;;5109593;28;20065;-52
2022/11/25 16:05:13;;;;;;;10.88;3.58;;;10.70;81.50;;;;;;5110438;28;20502;-48
2022/11/25 16:07:51;;;;;;;8.68;3.15;;;10.70;81.60;;;;;;5109899;28;20024;-51
2022/11/25 16:10:41;;;;;;;10.20;3.95;;;10.70;81.60;;;;;;5109773;28;20057;-51
2022/11/25 16:13:29;;;;;;;15.20;3.85;;;10.80;81.70;;;;;;5104076;28;20012;-49
2022/11/25 16:16:06;;;;;;;7.55;3.58;;;10.70;81.60;;;;;;5096379;28;20074;-48
2022/11/25 16:18:53;;;;;;;15.25;3.88;;;10.80;81.50;;;;;;5094800;28;20030;-49
2022/11/25 16:21:24;;;;;;;14.20;4.18;;;10.80;81.50;;;;;;5096918;28;20024;-62
2022/11/25 16:23:58;;;;;;;12.00;4.50;;;10.80;81.50;;;;;;5097228;28;20439;-61
2022/11/25 16:26:31;;;;;;;12.48;3.97;;;10.80;81.50;;;;;;5096073;28;20129;-62
2022/11/25 16:28:59;;;;;;;8.65;3.15;;;10.70;81.60;;;;;;5095975;28;20027;-64
2022/11/25 16:31:25;;;;;;;14.95;5.18;;;10.70;81.70;;;;;;5095713;28;20036;-60
2022/11/25 16:34:04;;;;;;;16.00;4.82;;;10.70;81.70;;;;;;5094233;28;20024;-61
2022/11/25 16:36:30;;;;;;;15.65;3.92;;;10.70;81.80;;;;;;5095684;28;20032;-61
2022/11/25 16:38:56;;;;;;;14.05;3.63;;;10.70;81.70;;;;;;5094775;28;20020;-61
2022/11/25 16:41:25;;;;;;;10.88;3.65;;;10.80;81.90;;;;;;5095090;28;20050;-63
2022/11/25 16:43:52;;;;;;;15.23;3.85;;;10.70;82.40;;;;;;5095597;28;20044;-63
2022/11/25 16:46:19;;;;;;;10.10;3.60;;;10.60;83.10;;;;;;5095228;28;20039;-64
2022/11/25 16:48:45;;;;;;;9.25;3.75;;;10.60;83.50;;;;;;5095513;28;20035;-61
2022/11/25 16:51:16;;;;;;;13.75;3.90;;;10.50;83.80;;;;;;5095297;28;20036;-62
2022/11/25 16:53:43;;;;;;;16.13;4.53;;;10.40;84.50;;;;;;5095901;28;20016;-62
2022/11/25 16:56:15;;;;;;;16.38;4.43;;;10.40;84.80;;;;;;5095095;28;20028;-63
2022/11/25 16:58:42;;;;;;;13.05;4.78;;;10.30;84.80;;;;;;5095186;28;20019;-62
2022/11/25 17:01:13;;;;;;;13.27;4.70;;;10.30;85.00;;;;;;5076731;28;20056;-62
2022/11/25 17:03:40;;;;;;;11.20;3.55;;;10.40;85.00;;;;;;5093690;28;20077;-63
2022/11/25 17:06:13;;;;;;;10.30;4.32;;;10.40;85.00;;;;;;5094136;28;20027;-63
2022/11/25 17:08:38;;;;;;;18.45;3.88;;;10.40;84.90;;;;;;5095330;28;20028;-62
2022/11/25 17:11:04;;;;;;;14.35;4.07;;;10.30;84.90;;;;;;5095182;28;20114;-61
2022/11/25 17:13:30;;;;;;;12.10;4.18;;;10.30;85.10;;;;;;5095574;28;20028;-63
2022/11/25 17:15:55;;;;;;;15.70;4.55;;;10.20;85.30;;;;;;5095918;28;20020;-62
2022/11/25 17:18:21;;;;;;;21.60;4.57;;;10.20;85.20;;;;;;5094616;28;20028;-62
2022/11/25 17:20:47;;;;;;;13.30;4.55;;;10.20;85.10;;;;;;5094632;28;20039;-63
2022/11/25 17:23:15;;;;;;;16.70;5.22;;;10.10;85.30;;;;;;5094564;28;20095;-62
2022/11/25 17:25:47;;;;;;;15.65;4.90;;;10.00;85.60;;;;;;5092418;28;20111;-63
2022/11/25 17:28:17;;;;;;;14.25;4.45;;;10.10;85.50;;;;;;5094731;28;20020;-62
2022/11/25 17:30:44;;;;;;;12.63;3.90;;;10.10;85.50;;;;;;5094643;28;20028;-63
2022/11/25 17:33:19;;;;;;;12.70;4.05;;;10.10;85.40;;;;;;5095872;28;20028;-63
2022/11/25 17:35:45;;;;;;;15.35;3.80;;;10.20;85.10;;;;;;5095017;28;20369;-62
2022/11/25 17:38:20;;;;;;;22.45;4.60;;;10.20;85.10;;;;;;5095831;28;20036;-62
2022/11/25 17:40:46;;;;;;;8.35;3.90;;;10.20;84.60;;;;;;5076420;28;20028;-64
2022/11/25 17:43:17;;;;;;;16.20;4.22;;;10.20;84.70;;;;;;5094151;28;20107;-63
2022/11/25 17:45:44;;;;;;;16.90;5.30;;;10.20;84.70;;;;;;5094467;28;20050;-62
2022/11/25 17:48:13;;;;;;;18.17;4.35;;;10.30;84.70;;;;;;5092622;28;20028;-62
2022/11/25 17:50:40;;;;;;;12.25;5.22;;;10.20;84.50;;;;;;5094076;28;20380;-63
2022/11/25 17:53:06;;;;;;;22.65;4.75;;;10.20;84.60;;;;;;5094325;28;20555;-62
2022/11/25 17:55:34;;;;;;;15.05;4.22;;;10.30;84.60;;;;;;5094015;28;20034;-61
2022/11/25 17:58:00;;;;;;;9.68;4.18;;;10.30;84.50;;;;;;5094034;28;20483;-63
2022/11/25 18:00:26;;;;;;;13.02;5.32;;;10.30;84.50;;;;;;5093910;28;20024;-63
2022/11/25 18:02:51;;;;;;;13.18;5.07;;;10.30;84.30;;;;;;5093299;28;20048;-63
2022/11/25 18:05:22;;;;;;;16.45;4.55;;;10.30;84.20;;;;;;5093982;28;20016;-62
2022/11/25 18:07:48;;;;;;;18.27;6.28;;;10.30;84.50;;;;;;5093776;28;20053;-63
2022/11/25 18:10:17;;;;;;;15.82;3.95;;;10.30;84.60;;;;;;5093761;28;20028;-63
2022/11/25 18:12:45;;;;;;;20.52;5.18;;;10.20;84.80;;;;;;5092610;28;20082;-64
2022/11/25 18:15:29;;;;;;;19.27;4.90;;;10.20;84.70;;;;;;5092400;28;20502;-64
2022/11/25 18:18:18;;;;;;;12.70;4.55;;;10.10;84.90;;;;;;5094353;28;20093;-62
2022/11/25 18:20:43;;;;;;;26.83;5.57;;;10.10;84.80;;;;;;5093582;28;20028;-64
2022/11/25 18:23:09;;;;;;;10.60;3.88;;;10.10;85.00;;;;;;5094277;28;20111;-62
2022/11/25 18:25:34;;;;;;;12.73;4.43;;;10.00;85.20;;;;;;5093941;28;20028;-62
2022/11/25 18:28:02;;;;;;;14.35;5.18;;;10.00;85.40;;;;;;5093485;28;20086;-63
2022/11/25 18:30:32;;;;;;;9.38;5.00;;;10.10;85.20;;;;;;5094018;28;20047;-62
2022/11/25 18:33:00;;;;;;;13.32;4.57;;;10.00;85.30;;;;;;5093337;28;20031;-64
2022/11/25 18:35:32;;;;;;;10.48;4.43;;;10.00;85.20;;;;;;5091973;28;20452;-63
2022/11/25 18:37:59;;;;;;;9.82;4.50;;;10.00;85.40;;;;;;5094097;28;20391;-62
2022/11/25 18:40:26;;;;;;;21.85;4.65;;;10.00;85.40;;;;;;5093750;28;20031;-61
2022/11/25 18:42:54;;;;;;;16.55;6.25;;;9.90;85.50;;;;;;5093625;28;20035;-62
2022/11/25 18:45:24;;;;;;;13.77;4.15;;;9.80;85.60;;;;;;5093764;28;20020;-62
2022/11/25 18:47:49;;;;;;;19.08;4.57;;;9.80;85.70;;;;;;5093531;28;20042;-61
2022/11/25 18:50:20;;;;;;;16.10;5.05;;;9.80;85.80;;;;;;5092670;28;20111;-62
2022/11/25 18:52:47;;;;;;;16.10;4.63;;;9.80;85.90;;;;;;5092447;28;20377;-63
2022/11/25 18:55:15;;;;;;;16.08;4.82;;;9.80;85.60;;;;;;5093454;28;20024;-63
2022/11/25 18:57:44;;;;;;;19.08;5.70;;;9.80;85.50;;;;;;5093531;28;20024;-61
2022/11/25 19:00:21;;;;;;;18.48;5.15;;;9.80;85.60;;;;;;5091678;28;20031;-62
2022/11/25 19:02:48;;;;;;;18.45;4.70;;;9.80;85.50;;;;;;5092967;28;20048;-62
2022/11/25 19:05:24;;;;;;;17.33;4.05;;;9.90;85.40;;;;;;5091910;28;20043;-64
2022/11/25 19:07:55;;;;;;;12.25;4.40;;;9.80;85.30;;;;;;5093507;28;20491;-63
2022/11/25 19:10:26;;;;;;;19.08;5.32;;;9.80;85.20;;;;;;5093871;28;20028;-61
2022/11/25 19:12:59;;;;;;;18.17;5.20;;;9.80;85.40;;;;;;5092097;28;20024;-63
2022/11/25 19:15:25;;;;;;;11.80;4.43;;;9.90;85.30;;;;;;5092306;28;20093;-62
2022/11/25 19:17:57;;;;;;;13.32;5.80;;;9.90;85.00;;;;;;5093243;28;20025;-63
2022/11/25 19:20:25;;;;;;;17.48;6.15;;;9.80;85.30;;;;;;5093538;28;20046;-60
2022/11/25 19:22:51;;;;;;;18.48;5.10;;;9.80;85.50;;;;;;5093315;28;20056;-62
2022/11/25 19:25:17;;;;;;;16.50;4.70;;;9.80;85.50;;;;;;5092994;28;20020;-61
2022/11/25 19:27:49;;;;;;;10.75;5.70;;;9.90;85.40;;;;;;5093184;28;20020;-63
2022/11/25 19:30:17;;;;;;;12.52;4.63;;;9.90;85.20;;;;;;5095623;28;20025;-63
2022/11/25 19:32:46;;;;;;;16.70;5.63;;;10.00;85.20;;;;;;5095107;28;20131;-62
2022/11/25 19:35:21;;;;;;;11.23;5.22;;;9.90;85.20;;;;;;5096525;28;20107;-63
2022/11/25 19:37:46;;;;;;;26.35;8.02;;;9.80;85.30;;;;;;5095679;28;20085;-63
2022/11/25 19:40:18;;;;;;;20.33;7.88;;;9.80;85.50;;;;;;5094890;28;20059;-63
2022/11/25 19:42:47;;;;;;;20.15;6.07;;;9.60;85.90;;;;;;5097467;28;20020;-62
2022/11/25 19:45:18;;;;;;;9.90;4.85;;;9.60;86.20;;;;;;5095922;28;20024;-62
2022/11/25 19:47:46;;;;;;;19.13;5.90;;;9.70;86.40;;;;;;5092201;28;20048;-61
2022/11/25 19:50:32;;;;;;;19.05;6.35;;;9.70;86.20;;;;;;5097044;28;20379;-61
2022/11/25 19:52:58;;;;;;;13.10;5.10;;;9.70;86.20;;;;;;5097310;28;20032;-62
2022/11/25 19:55:28;;;;;;;20.58;5.72;;;9.60;86.40;;;;;;5096472;28;20128;-61
2022/11/25 19:57:54;;;;;;;17.98;6.68;;;9.50;86.60;;;;;;5096862;28;20035;-63
2022/11/25 20:00:22;;;;;;;19.65;5.88;;;9.50;86.90;;;;;;5096586;28;20028;-61
2022/11/25 20:02:51;;;;;;;25.75;6.70;;;9.50;86.90;;;;;;5096661;28;20060;-63
2022/11/25 20:05:29;;;;;;;31.60;7.72;;;9.50;87.00;;;;;;5096426;28;20020;-63
2022/11/25 20:07:55;;;;;;;24.02;6.85;;;9.50;87.20;;;;;;5095154;28;20119;-61
2022/11/25 20:10:25;;;;;;;14.25;6.82;;;9.40;87.50;;;;;;5096279;28;20110;-63
2022/11/25 20:12:52;;;;;;;;;;;9.30;87.60;;;;;;5096991;28;20027;-61
2022/11/25 20:15:18;;;;;;;27.75;8.45;;;9.30;87.70;;;;;;5096457;28;19984;-62
2022/11/25 20:17:53;;;;;;;23.90;5.65;;;9.30;87.80;;;;;;5095915;28;20099;-61
2022/11/25 20:20:42;;;;;;;22.83;7.55;;;9.20;88.10;;;;;;5096293;28;20028;-62
2022/11/25 20:23:24;;;;;;;16.45;7.13;;;9.10;88.10;;;;;;5094072;28;20051;-64
2022/11/25 20:25:50;;;;;;;22.65;7.30;;;9.10;88.50;;;;;;5096408;28;20039;-64
2022/11/25 20:28:25;;;;;;;22.00;6.32;;;9.10;88.60;;;;;;5096324;28;20372;-63
2022/11/25 20:30:51;;;;;;;18.63;6.47;;;9.10;88.80;;;;;;5096430;28;20027;-63
2022/11/25 20:33:18;;;;;;;13.32;6.50;;;9.10;88.80;;;;;;5097664;28;20104;-62
2022/11/25 20:35:47;;;;;;;24.42;6.95;;;9.10;88.80;;;;;;5097978;28;20020;-62
2022/11/25 20:38:25;;;;;;;17.63;6.55;;;9.10;88.70;;;;;;5096671;28;20020;-62
2022/11/25 20:40:53;;;;;;;20.95;7.47;;;9.10;88.90;;;;;;5096911;28;20020;-62
2022/11/25 20:43:22;;;;;;;17.77;6.05;;;9.00;89.00;;;;;;5097317;28;20051;-62
2022/11/25 20:45:49;;;;;;;18.02;6.55;;;9.00;89.20;;;;;;5096762;28;20161;-62
2022/11/25 20:48:15;;;;;;;17.38;7.75;;;9.00;89.30;;;;;;5094676;28;20035;-63
2022/11/25 20:50:41;;;;;;;17.55;6.82;;;9.00;89.30;;;;;;5095857;28;20024;-62
2022/11/25 20:53:13;;;;;;;20.15;7.45;;;9.00;89.30;;;;;;5095840;28;20073;-61
2022/11/25 20:55:39;;;;;;;27.38;7.47;;;8.90;89.40;;;;;;5094245;28;20032;-62
2022/11/25 20:58:27;;;;;;;28.63;7.85;;;8.80;89.70;;;;;;5095565;28;20027;-63
